Time;durP1;ratioP1;P1;durP2;ratioP2;P2;SDS_P1;SDS_P2;PMS_P1;PMS_P2;Temp;Humidity;BMP_temperature;BMP_pressure;BME280_temperature;BME280_humidity;BME280_pressure;Samples;Min_cycle;Max_cycle;Signal;HPM_P1;HPM_P2
2022/07/23 00:05:23;;;;;;;13.55;9.65;;;;;;;20.30;77.53;99077.02;4085694;86;21064;-81
2022/07/23 00:11:25;;;;;;;12.18;8.70;;;;;;;20.18;77.76;99076.36;3953192;89;21062;-82
2022/07/23 00:17:27;;;;;;;15.50;8.50;;;;;;;20.02;78.34;99068.00;4059295;86;21054;-81
2022/07/23 00:23:33;;;;;;;12.90;10.05;;;;;;;19.93;78.48;99065.86;4015177;87;21131;-81
2022/07/23 00:29:34;;;;;;;13.93;10.32;;;;;;;19.64;78.80;99065.58;4018402;87;21096;-82
2022/07/23 00:35:42;;;;;;;11.35;8.05;;;;;;;19.53;79.71;99070.63;4036135;86;21066;-81
2022/07/23 00:41:50;;;;;;;10.18;8.53;;;;;;;19.62;80.52;99079.89;4051724;86;21578;-82
2022/07/23 00:47:53;;;;;;;14.23;10.35;;;;;;;19.55;80.27;99075.12;4049627;86;21022;-81
2022/07/23 00:53:59;;;;;;;14.85;9.95;;;;;;;19.63;80.90;99075.92;4051188;86;21013;-81
2022/07/23 01:00:07;;;;;;;18.20;9.05;;;;;;;19.56;80.98;99080.88;4016219;87;22185;-81
2022/07/23 01:06:10;;;;;;;14.70;9.23;;;;;;;19.41;81.19;99074.86;4052323;86;21526;-82
2022/07/23 01:12:14;;;;;;;16.10;9.38;;;;;;;19.32;81.66;99083.60;4055962;86;21037;-82
2022/07/23 01:18:19;;;;;;;15.40;9.15;;;;;;;19.31;81.95;99079.27;4035213;86;21090;-82
2022/07/23 01:24:24;;;;;;;16.90;9.80;;;;;;;19.30;82.27;99079.88;4050686;86;21136;-81
2022/07/23 01:30:37;;;;;;;13.93;9.75;;;;;;;19.22;82.69;99084.58;4050529;86;21074;-82
2022/07/23 01:36:43;;;;;;;12.45;9.53;;;;;;;19.30;82.90;99070.16;4019323;87;21015;-81
2022/07/23 01:42:46;;;;;;;13.55;8.95;;;;;;;19.16;83.11;99081.55;4041420;88;20976;-81
2022/07/23 01:48:52;;;;;;;11.33;8.48;;;;;;;19.09;83.31;99083.70;3989665;87;21575;-82
2022/07/23 01:55:07;;;;;;;11.10;9.20;;;;;;;19.01;83.25;99080.89;3922047;88;21148;-81
2022/07/23 02:01:10;;;;;;;12.60;8.85;;;;;;;19.01;83.87;99077.52;4038344;87;21032;-81
2022/07/23 02:07:17;;;;;;;14.35;10.53;;;;;;;19.00;83.75;99077.92;3918019;89;21926;-82
2022/07/23 02:13:20;;;;;;;13.68;9.68;;;;;;;18.97;83.84;99071.25;3967896;88;21162;-82
2022/07/23 02:19:25;;;;;;;15.03;9.83;;;;;;;18.76;83.52;99074.48;3940718;89;21088;-82
2022/07/23 02:25:29;;;;;;;16.25;9.08;;;;;;;18.73;84.07;99081.66;4017074;87;21085;-82
2022/07/23 02:31:40;;;;;;;13.72;9.45;;;;;;;18.62;84.65;99079.70;3942523;89;21537;-82
2022/07/23 02:37:46;;;;;;;14.78;9.55;;;;;;;18.65;84.72;99073.30;3996883;87;21069;-82
2022/07/23 02:43:52;;;;;;;11.80;10.03;;;;;;;18.34;84.43;99069.13;4040655;86;21097;-82
2022/07/23 02:49:57;;;;;;;12.25;9.73;;;;;;;18.32;84.97;99070.77;4053877;86;21634;-82
2022/07/23 02:55:59;;;;;;;15.43;9.70;;;;;;;18.35;85.57;99080.38;4054439;86;21058;-82
2022/07/23 03:02:03;;;;;;;14.63;11.10;;;;;;;18.46;85.57;99087.92;4056029;86;21583;-81
2022/07/23 03:08:06;;;;;;;15.03;10.53;;;;;;;18.45;85.45;99084.19;4054334;86;21093;-82
2022/07/23 03:14:13;;;;;;;13.00;10.10;;;;;;;18.26;85.01;99079.40;4052858;86;21145;-82
2022/07/23 03:20:16;;;;;;;17.25;10.88;;;;;;;18.04;86.21;99076.20;4049767;86;21191;-82
2022/07/23 03:26:19;;;;;;;11.57;9.48;;;;;;;18.18;86.08;99071.03;4054245;87;21922;-81
2022/07/23 03:32:27;;;;;;;16.65;10.55;;;;;;;18.08;86.18;99059.53;4048073;87;21049;-82
2022/07/23 03:38:31;;;;;;;13.58;9.73;;;;;;;17.92;86.34;99064.36;4035517;86;21058;-82
2022/07/23 03:44:36;;;;;;;14.18;9.88;;;;;;;17.88;86.91;99059.50;4037497;87;21041;-81
2022/07/23 03:50:39;;;;;;;13.08;9.75;;;;;;;17.92;87.31;99062.18;4034572;87;21010;-82
2022/07/23 03:56:47;;;;;;;13.65;10.08;;;;;;;17.96;87.54;99064.30;4036226;87;21094;-81
2022/07/23 04:02:49;;;;;;;14.00;9.65;;;;;;;18.14;88.10;99066.14;4041207;88;21099;-81
2022/07/23 04:08:56;;;;;;;13.88;10.20;;;;;;;18.36;88.06;99066.72;4041610;86;21006;-81
2022/07/23 04:14:58;;;;;;;14.28;8.75;;;;;;;18.59;87.90;99063.91;4037513;87;21062;-82
2022/07/23 04:21:00;;;;;;;10.90;9.45;;;;;;;18.73;87.66;99066.41;4036922;87;21140;-82
2022/07/23 04:27:14;;;;;;;12.55;9.73;;;;;;;18.89;87.39;99065.67;4036238;87;21071;-82
2022/07/23 04:33:19;;;;;;;14.10;9.15;;;;;;;18.94;87.17;99067.16;4034640;87;21061;-82
2022/07/23 04:39:22;;;;;;;13.15;8.68;;;;;;;19.00;87.21;99052.36;4036516;87;22255;-82
2022/07/23 04:45:26;;;;;;;15.38;9.25;;;;;;;19.08;87.06;99052.98;4038285;86;21018;-82
2022/07/23 04:51:36;;;;;;;14.07;9.50;;;;;;;19.20;87.06;99046.16;4020348;87;21009;-82
2022/07/23 04:57:38;;;;;;;13.35;9.90;;;;;;;19.33;86.94;99054.02;3918540;89;21518;-81
2022/07/23 05:03:39;;;;;;;12.47;9.68;;;;;;;19.47;87.04;99045.96;4038004;87;21030;-81
2022/07/23 05:09:41;;;;;;;15.38;9.60;;;;;;;19.62;87.15;99041.65;4037421;87;22014;-82
2022/07/23 05:15:46;;;;;;;13.18;9.05;;;;;;;19.80;86.98;99042.77;4037555;87;21093;-82
2022/07/23 05:21:51;;;;;;;11.28;9.40;;;;;;;19.99;86.89;99053.00;4038165;87;21023;-81
2022/07/23 05:27:57;;;;;;;12.18;9.50;;;;;;;20.17;86.69;99051.18;4038199;87;21533;-81
2022/07/23 05:34:06;;;;;;;12.88;9.30;;;;;;;20.34;86.35;99048.53;4058834;86;21117;-82
2022/07/23 05:40:14;;;;;;;12.23;9.13;;;;;;;20.53;86.11;99047.58;4080340;87;21024;-81
2022/07/23 05:46:18;;;;;;;13.65;9.23;;;;;;;20.84;85.80;99042.34;4069758;87;21509;-81
2022/07/23 05:52:21;;;;;;;12.15;8.98;;;;;;;20.94;85.38;99033.66;4087494;84;21088;-82
2022/07/23 05:58:24;;;;;;;10.72;9.23;;;;;;;21.00;85.12;99031.92;4083195;86;21050;-82
2022/07/23 06:04:28;;;;;;;12.33;9.28;;;;;;;21.16;84.93;99033.22;4086974;86;21036;-82
2022/07/23 06:10:34;;;;;;;12.30;8.90;;;;;;;21.34;84.96;99034.86;4057786;86;22304;-82
2022/07/23 06:16:40;;;;;;;16.77;9.85;;;;;;;21.57;84.85;99023.36;4085208;86;21087;-82
2022/07/23 06:22:47;;;;;;;12.85;8.85;;;;;;;21.83;84.45;99022.73;4079722;86;21987;-82
2022/07/23 06:28:52;;;;;;;10.85;8.83;;;;;;;22.11;84.26;99018.98;4083100;86;21052;-82
2022/07/23 06:35:06;;;;;;;15.23;9.83;;;;;;;22.37;83.84;99017.64;4082086;85;21040;-82
2022/07/23 06:41:13;;;;;;;11.73;8.68;;;;;;;22.66;83.35;99011.20;4079726;86;21211;-82
2022/07/23 06:47:19;;;;;;;12.07;8.75;;;;;;;22.97;82.55;98995.88;4057024;86;21069;-82
2022/07/23 06:53:29;;;;;;;10.90;9.03;;;;;;;23.28;81.91;98999.46;4078962;86;21088;-82
2022/07/23 06:59:40;;;;;;;13.58;8.73;;;;;;;23.68;81.08;98996.00;4079717;86;21140;-82
2022/07/23 07:05:47;;;;;;;11.57;9.58;;;;;;;24.28;80.87;98992.83;4079775;86;21139;-82
2022/07/23 07:11:56;;;;;;;12.45;9.15;;;;;;;24.96;79.90;99003.16;4072260;86;21065;-82
2022/07/23 07:18:00;;;;;;;15.40;9.75;;;;;;;25.52;78.90;99003.27;4070241;86;21013;-83
2022/07/23 07:24:03;;;;;;;12.50;9.73;;;;;;;25.89;77.43;98985.75;4077779;86;21029;-83
2022/07/23 07:30:10;;;;;;;13.30;9.35;;;;;;;26.39;76.86;98981.16;4080145;86;21393;-82
2022/07/23 07:36:15;;;;;;;15.85;10.43;;;;;;;26.84;75.05;98968.73;4001104;87;21186;-86
2022/07/23 07:42:19;;;;;;;13.28;9.80;;;;;;;27.33;74.50;98962.53;4047160;86;21127;-83
2022/07/23 07:48:21;;;;;;;11.50;9.33;;;;;;;27.85;73.20;98959.91;4064292;86;22248;-84
2022/07/23 07:54:25;;;;;;;12.53;9.25;;;;;;;28.27;72.04;98968.00;3997137;87;21083;-84
2022/07/23 08:00:30;;;;;;;12.37;8.50;;;;;;;28.73;70.80;98970.81;4064321;86;21120;-84
2022/07/23 08:06:32;;;;;;;10.43;8.28;;;;;;;29.07;69.47;98981.78;4063939;86;21068;-83
2022/07/23 08:12:44;;;;;;;9.45;7.65;;;;;;;29.27;68.21;98993.70;4064934;86;21545;-83
2022/07/23 08:18:48;;;;;;;11.43;8.65;;;;;;;29.38;66.81;98995.85;4009664;87;21119;-83
2022/07/23 08:24:51;;;;;;;10.38;8.18;;;;;;;29.64;66.27;98990.91;3968784;88;21106;-83
2022/07/23 08:30:56;;;;;;;9.13;7.65;;;;;;;29.85;64.63;98989.50;3947058;88;21187;-83
2022/07/23 08:37:00;;;;;;;10.93;8.55;;;;;;;29.90;63.39;98985.28;3967764;87;21898;-83
2022/07/23 08:43:07;;;;;;;14.10;8.15;;;;;;;30.03;62.95;98982.01;3950687;89;21112;-83
2022/07/23 08:49:08;;;;;;;10.40;8.38;;;;;;;30.24;62.17;98974.28;4053077;86;21062;-84
2022/07/23 08:55:12;;;;;;;10.00;8.20;;;;;;;30.32;61.10;98956.98;3947992;89;21160;-83
2022/07/23 09:01:14;;;;;;;11.15;8.20;;;;;;;30.36;60.30;98944.81;4013388;87;21075;-83
2022/07/23 09:07:20;;;;;;;10.23;7.45;;;;;;;30.38;59.72;98938.00;4054648;85;21660;-84
2022/07/23 09:13:29;;;;;;;9.23;7.60;;;;;;;30.40;59.46;98924.14;4016772;87;21056;-85
2022/07/23 09:19:31;;;;;;;8.40;7.60;;;;;;;30.51;58.94;98935.46;4014696;87;21568;-84
2022/07/23 09:25:32;;;;;;;8.58;6.70;;;;;;;30.59;58.25;98929.33;4018996;87;21064;-83
2022/07/23 09:32:02;;;;;;;10.35;6.83;;;;;;;30.80;57.05;98938.48;4053903;86;21102;-84
2022/07/23 09:38:03;;;;;;;10.10;6.80;;;;;;;31.13;55.95;98946.17;3951652;89;21562;-84
2022/07/23 09:44:13;;;;;;;7.30;6.20;;;;;;;31.58;55.16;98929.27;4079434;86;21153;-82
2022/07/23 09:50:20;;;;;;;8.55;6.83;;;;;;;32.02;54.65;98921.28;4078874;86;21089;-84
2022/07/23 09:56:38;;;;;;;7.10;6.40;;;;;;;32.54;53.91;98916.37;4077652;86;21057;-84
2022/07/23 10:02:51;;;;;;;6.95;6.10;;;;;;;32.99;52.26;98909.84;4058664;86;21153;-83
2022/07/23 10:09:16;;;;;;;8.18;5.70;;;;;;;33.62;51.04;98903.80;4074725;86;21590;-86
2022/07/23 10:15:39;;;;;;;11.73;6.43;;;;;;;33.67;46.60;98904.39;4077051;85;21033;-84
2022/07/23 10:21:51;;;;;;;6.87;6.20;;;;;;;33.46;45.72;98899.08;4082292;85;21553;-86
2022/07/23 10:28:40;;;;;;;6.20;5.60;;;;;;;33.85;46.63;98901.44;4077047;86;21004;-84
2022/07/23 10:35:15;;;;;;;8.95;5.67;;;;;;;33.88;44.97;98900.37;4067084;86;21090;-85
2022/07/23 10:41:40;;;;;;;7.08;5.35;;;;;;;34.24;44.38;98897.45;3940425;89;21097;-84
2022/07/23 10:47:48;;;;;;;5.45;5.00;;;;;;;34.26;40.29;98886.33;4032030;87;21096;-86
2022/07/23 10:54:00;;;;;;;6.70;5.87;;;;;;;34.71;41.42;98880.09;3934889;89;21092;-85
2022/07/23 11:00:13;;;;;;;6.47;5.87;;;;;;;34.48;41.32;98876.85;4033365;87;21058;-84
2022/07/23 11:06:18;;;;;;;6.35;5.72;;;;;;;34.12;41.82;98876.20;4011949;87;21073;-85
2022/07/23 11:12:31;;;;;;;7.35;5.12;;;;;;;34.37;41.84;98863.43;3936924;89;21091;-85
2022/07/23 11:19:01;;;;;;;5.95;5.28;;;;;;;34.69;39.89;98850.03;3939020;89;21057;-85
2022/07/23 11:25:12;;;;;;;5.25;4.75;;;;;;;34.88;39.77;98844.30;3946557;88;21615;-85
2022/07/23 11:31:19;;;;;;;6.10;5.50;;;;;;;35.27;39.04;98848.61;4031272;87;21581;-84
2022/07/23 11:37:39;;;;;;;6.70;5.62;;;;;;;35.70;38.85;98846.19;4047701;86;21022;-86
2022/07/23 11:43:40;;;;;;;5.87;4.90;;;;;;;36.07;38.21;98835.28;4055886;86;21065;-85
2022/07/23 11:49:59;;;;;;;6.50;5.42;;;;;;;36.37;38.30;98836.98;4055043;86;21664;-84
2022/07/23 11:56:12;;;;;;;7.95;5.30;;;;;;;36.54;37.96;98823.08;4053399;86;21037;-85
2022/07/23 12:02:15;;;;;;;6.53;4.67;;;;;;;36.61;36.79;98813.16;4053974;86;21036;-85
2022/07/23 12:08:17;;;;;;;5.58;5.08;;;;;;;36.56;36.70;98807.58;4054089;86;21432;-85
2022/07/23 12:14:29;;;;;;;5.33;4.83;;;;;;;36.27;36.42;98799.61;4054362;86;21025;-86
2022/07/23 12:20:45;;;;;;;6.83;5.65;;;;;;;35.94;36.48;98789.00;4034926;86;21562;-85
2022/07/23 12:27:13;;;;;;;5.90;5.05;;;;;;;35.36;35.97;98779.89;3950847;89;21043;-84
2022/07/23 12:33:29;;;;;;;6.17;5.22;;;;;;;34.76;35.96;98769.77;4053284;86;21079;-84
2022/07/23 12:39:32;;;;;;;6.13;5.20;;;;;;;34.56;36.33;98770.40;3945184;89;21099;-85
2022/07/23 12:45:45;;;;;;;6.13;5.07;;;;;;;34.38;36.72;98756.98;4056720;85;20995;-85
2022/07/23 12:51:49;;;;;;;6.12;5.53;;;;;;;34.12;36.73;98761.95;3947312;89;21070;-85
2022/07/23 12:57:52;;;;;;;7.30;5.53;;;;;;;33.85;37.13;98761.68;4017857;87;21087;-84
2022/07/23 13:04:12;;;;;;;7.87;5.75;;;;;;;33.49;37.87;98762.45;4052734;86;21076;-85
2022/07/23 13:10:13;;;;;;;7.42;6.08;;;;;;;33.17;38.44;98747.48;4055096;88;21644;-84
2022/07/23 13:16:17;;;;;;;10.32;6.75;;;;;;;33.09;38.91;98740.12;3946846;89;21047;-84
2022/07/23 13:22:20;;;;;;;6.37;5.77;;;;;;;33.03;38.90;98728.83;4059833;86;21042;-84
2022/07/23 13:28:24;;;;;;;8.75;6.75;;;;;;;32.95;39.42;98731.40;3990594;88;20994;-84
2022/07/23 13:34:34;;;;;;;7.40;6.30;;;;;;;32.91;39.47;98727.44;4053316;86;21022;-84
2022/07/23 13:40:45;;;;;;;7.03;6.33;;;;;;;32.70;39.62;98727.02;4031098;87;21108;-84
2022/07/23 13:46:50;;;;;;;8.10;6.40;;;;;;;32.35;40.58;98726.42;3936707;89;21040;-84
2022/07/23 13:52:55;;;;;;;7.45;6.17;;;;;;;31.86;40.71;98709.98;4031101;87;21547;-84
2022/07/23 13:58:58;;;;;;;7.42;6.10;;;;;;;31.82;41.05;98704.45;3931428;89;21036;-84
2022/07/23 14:05:03;;;;;;;7.17;6.22;;;;;;;31.80;41.58;98709.22;4005942;87;21072;-82
2022/07/23 14:11:12;;;;;;;7.00;6.17;;;;;;;31.67;42.08;98696.95;4012317;87;21034;-83
2022/07/23 14:17:16;;;;;;;6.95;6.25;;;;;;;31.46;42.67;98681.05;3940053;89;21606;-83
2022/07/23 14:23:20;;;;;;;7.17;6.47;;;;;;;31.33;42.82;98655.41;3988058;87;21437;-84
2022/07/23 14:29:23;;;;;;;7.00;6.30;;;;;;;31.10;43.09;98620.69;4013718;87;21041;-84
2022/07/23 14:35:24;;;;;;;9.10;6.70;;;;;;;30.85;43.38;98614.14;3930394;89;21116;-84
2022/07/23 14:41:25;;;;;;;7.70;7.00;;;;;;;30.68;44.23;98621.87;3941785;89;21053;-84
2022/07/23 14:47:29;;;;;;;7.95;7.00;;;;;;;30.46;44.70;98686.93;4037043;87;21070;-84
2022/07/23 14:53:34;;;;;;;7.55;6.75;;;;;;;30.25;45.16;98698.37;3935420;89;21091;-83
2022/07/23 14:59:42;;;;;;;37.78;8.03;;;;;;;30.03;45.62;98714.66;3953508;87;21114;-85
2022/07/23 15:05:43;;;;;;;241.75;26.90;;;;;;;29.46;46.83;98812.23;4036456;87;21946;-84
2022/07/23 15:11:45;;;;;;;19.07;4.92;;;;;;;28.14;46.91;98777.67;3936257;89;20999;-83
2022/07/23 15:17:46;;;;;;;11.20;6.10;;;;;;;26.45;53.33;98722.42;3929662;89;21099;-84
2022/07/23 15:24:00;;;;;;;10.20;4.95;;;;;;;24.62;56.68;98796.57;3933088;89;21024;-84
2022/07/23 15:30:07;;;;;;;8.10;5.67;;;;;;;23.87;61.38;98827.69;3955081;88;21019;-83
2022/07/23 15:36:10;;;;;;;7.03;6.33;;;;;;;23.56;61.88;98871.18;3910188;89;21164;-82
2022/07/23 15:42:19;;;;;;;7.35;5.87;;;;;;;23.56;61.88;98871.18;3919433;89;21154;-82
2022/07/23 15:48:31;;;;;;;10.35;5.78;;;;;;;23.48;62.91;98892.28;3897237;89;21122;-82
2022/07/23 15:54:38;;;;;;;8.25;5.55;;;;;;;23.44;62.49;98902.05;3937837;90;21122;-83
2022/07/23 16:00:40;;;;;;;9.70;5.53;;;;;;;23.67;61.81;98910.62;3943963;89;21007;-81
2022/07/23 16:06:42;;;;;;;8.80;6.12;;;;;;;23.86;61.30;98945.73;4082161;86;21472;-83
2022/07/23 16:12:43;;;;;;;9.35;6.40;;;;;;;23.80;61.45;98954.58;4080570;86;21506;-82
2022/07/23 16:18:51;;;;;;;13.95;8.40;;;;;;;23.47;62.31;98866.98;4080723;86;21034;-83
2022/07/23 16:25:04;;;;;;;11.70;7.60;;;;;;;23.16;63.91;98823.02;4080978;86;21017;-82
2022/07/23 16:31:23;;;;;;;8.58;7.65;;;;;;;22.91;65.65;98802.34;4077876;86;22129;-83
2022/07/23 16:37:36;;;;;;;12.35;8.78;;;;;;;22.75;67.48;98808.19;4074887;86;21140;-84
2022/07/23 16:43:37;;;;;;;12.98;9.33;;;;;;;22.37;70.52;98818.23;4078306;86;21116;-83
2022/07/23 16:49:39;;;;;;;15.45;9.35;;;;;;;22.38;71.71;98853.24;4076814;86;21025;-83
2022/07/23 16:55:40;;;;;;;10.70;9.60;;;;;;;22.56;72.07;98858.95;4076849;86;22229;-82
2022/07/23 17:01:43;;;;;;;10.40;7.58;;;;;;;22.71;73.58;98886.45;4076489;85;22316;-83
2022/07/23 17:07:44;;;;;;;11.05;8.70;;;;;;;22.85;73.41;98922.77;4074122;86;21026;-82
2022/07/23 17:13:46;;;;;;;11.60;8.68;;;;;;;22.94;75.14;98946.56;4075333;86;21097;-82
2022/07/23 17:19:47;;;;;;;9.23;8.20;;;;;;;22.93;75.19;98946.38;4078602;86;21021;-83
2022/07/23 17:25:52;;;;;;;11.12;9.13;;;;;;;22.89;75.32;98963.29;4080525;86;21053;-83
2022/07/23 17:32:06;;;;;;;13.15;8.60;;;;;;;22.85;76.59;98966.03;4078712;85;21593;-82
2022/07/23 17:38:09;;;;;;;19.55;9.48;;;;;;;22.73;76.85;98980.86;4075742;86;21064;-84
2022/07/23 17:44:17;;;;;;;10.25;8.73;;;;;;;22.58;77.11;98973.63;4077927;86;21037;-82
2022/07/23 17:50:25;;;;;;;12.18;9.43;;;;;;;22.45;78.02;98980.50;4074913;87;20982;-82
2022/07/23 17:56:34;;;;;;;11.25;9.03;;;;;;;22.26;78.45;98982.38;3941995;84;9999672;-82
2022/07/23 18:02:45;;;;;;;14.10;9.83;;;;;;;22.18;79.77;98977.50;4078199;86;21071;-82
2022/07/23 18:08:55;;;;;;;14.90;10.05;;;;;;;22.15;80.20;98975.02;4074710;86;22002;-82
2022/07/23 18:15:00;;;;;;;16.07;9.68;;;;;;;22.15;80.86;98966.65;4078030;86;21065;-83
2022/07/23 18:21:04;;;;;;;12.85;10.55;;;;;;;22.15;81.66;98997.92;4077086;86;21061;-83
2022/07/23 18:27:08;;;;;;;12.78;11.40;;;;;;;22.02;82.65;99050.92;4074707;86;22007;-82
2022/07/23 18:33:13;;;;;;;15.15;12.80;;;;;;;21.92;83.49;99079.95;4078700;86;21086;-83
2022/07/23 18:39:15;;;;;;;15.23;13.62;;;;;;;21.82;84.19;99084.46;4096210;86;21157;-84
2022/07/23 18:45:16;;;;;;;17.17;12.23;;;;;;;21.80;84.35;99047.93;4077136;86;20994;-83
2022/07/23 18:51:18;;;;;;;20.85;13.75;;;;;;;21.76;85.00;99058.39;4074757;86;21104;-83
2022/07/23 18:57:20;;;;;;;18.57;13.22;;;;;;;21.58;86.38;99048.58;4078610;86;21021;-83
2022/07/23 19:03:22;;;;;;;16.80;12.47;;;;;;;21.64;87.01;99048.81;4075081;86;21053;-83
2022/07/23 19:09:23;;;;;;;16.52;13.35;;;;;;;21.70;87.37;99065.13;4079350;86;21035;-83
2022/07/23 19:15:48;;;;;;;19.05;15.48;;;;;;;21.50;87.15;99059.78;4080028;86;21506;-84
2022/07/23 19:21:49;;;;;;;18.17;13.68;;;;;;;21.51;88.25;99053.00;4058442;87;21013;-83
2022/07/23 19:27:50;;;;;;;17.25;13.83;;;;;;;21.53;88.75;99043.56;4103972;86;21007;-83
2022/07/23 19:33:58;;;;;;;22.27;15.32;;;;;;;21.59;89.28;99041.02;4075140;87;21021;-83
2022/07/23 19:40:02;;;;;;;20.60;14.58;;;;;;;21.43;89.35;99030.78;4078860;86;21097;-82
2022/07/23 19:46:04;;;;;;;20.45;14.43;;;;;;;21.33;90.03;99034.67;4071501;86;21592;-83
2022/07/23 19:52:08;;;;;;;18.40;14.30;;;;;;;21.19;90.26;99035.11;4076091;86;21556;-83
2022/07/23 19:58:10;;;;;;;17.37;14.03;;;;;;;21.35;91.28;99045.36;4079370;86;20978;-82
2022/07/23 20:04:16;;;;;;;15.60;12.88;;;;;;;21.44;91.16;99023.97;4076171;86;21084;-82
2022/07/23 20:10:19;;;;;;;19.87;13.15;;;;;;;21.47;91.65;99025.86;4076389;86;21076;-82
2022/07/23 20:16:21;;;;;;;19.95;12.98;;;;;;;21.56;91.77;99040.52;4075939;85;21515;-84
2022/07/23 20:22:24;;;;;;;15.83;12.15;;;;;;;21.47;91.40;99050.92;4079658;86;21124;-83
2022/07/23 20:28:26;;;;;;;16.07;13.38;;;;;;;21.45;91.94;99056.19;4078364;86;21077;-82
2022/07/23 20:34:28;;;;;;;20.50;13.05;;;;;;;21.46;92.01;99052.16;4076513;86;21900;-82
2022/07/23 20:40:30;;;;;;;16.12;13.25;;;;;;;21.31;92.43;99052.42;4059287;86;21493;-82
2022/07/23 20:46:33;;;;;;;17.55;12.37;;;;;;;21.33;92.47;99068.08;4044235;86;21093;-83
2022/07/23 20:52:37;;;;;;;18.57;13.30;;;;;;;21.27;92.66;99067.69;4008506;87;21176;-82
2022/07/23 20:58:39;;;;;;;18.75;12.98;;;;;;;21.24;93.10;99068.58;4048256;86;21065;-82
2022/07/23 21:04:42;;;;;;;16.20;13.18;;;;;;;21.12;93.37;99069.34;4048245;86;21053;-82
2022/07/23 21:10:47;;;;;;;20.08;12.40;;;;;;;21.04;93.33;99052.69;4051134;88;21573;-81
2022/07/23 21:16:48;;;;;;;15.28;12.23;;;;;;;21.05;94.00;99056.42;4050439;87;21029;-82
2022/07/23 21:22:50;;;;;;;16.62;12.37;;;;;;;21.06;93.95;99060.00;4046187;86;21018;-82
2022/07/23 21:28:52;;;;;;;17.77;13.93;;;;;;;21.12;94.05;99075.70;4011044;86;21077;-82
2022/07/23 21:34:53;;;;;;;20.27;12.28;;;;;;;21.00;94.06;99069.48;4035549;87;21085;-82
2022/07/23 21:40:57;;;;;;;15.98;12.65;;;;;;;21.01;94.34;99071.06;3948992;89;21060;-81
2022/07/23 21:46:58;;;;;;;17.32;14.05;;;;;;;21.03;94.30;99087.32;4057747;86;21037;-82
2022/07/23 21:52:59;;;;;;;18.92;14.18;;;;;;;21.02;94.11;99093.48;3950279;89;22230;-82
2022/07/23 21:59:01;;;;;;;18.15;12.68;;;;;;;20.83;94.88;99095.04;3949306;89;21056;-82
2022/07/23 22:05:05;;;;;;;17.17;14.03;;;;;;;20.81;95.29;99101.64;4060668;86;21054;-82
2022/07/23 22:11:07;;;;;;;15.60;13.80;;;;;;;20.95;95.42;99105.41;3954471;87;21073;-82
2022/07/23 22:17:08;;;;;;;14.43;11.38;;;;;;;21.03;95.65;99095.67;4060103;86;21001;-83
2022/07/23 22:23:10;;;;;;;16.97;14.18;;;;;;;21.01;95.28;99110.63;3996727;87;21032;-82
2022/07/23 22:29:13;;;;;;;20.80;13.88;;;;;;;20.95;95.79;99095.67;4058874;86;20994;-82
2022/07/23 22:35:15;;;;;;;16.57;12.75;;;;;;;20.91;95.52;99090.20;3933779;89;21044;-82
2022/07/23 22:41:22;;;;;;;23.35;14.47;;;;;;;20.88;96.01;99094.47;4057282;86;21062;-82
2022/07/23 22:47:27;;;;;;;19.12;13.65;;;;;;;20.93;95.90;99097.51;4022318;86;21044;-82
2022/07/23 22:53:29;;;;;;;19.87;15.43;;;;;;;20.83;96.16;99103.38;4039693;86;21525;-84
2022/07/23 22:59:31;;;;;;;18.27;13.93;;;;;;;20.85;96.42;99100.92;3950115;89;21053;-82
2022/07/23 23:05:32;;;;;;;20.27;15.13;;;;;;;20.90;96.44;99106.74;4055018;86;21037;-82
2022/07/23 23:11:39;;;;;;;19.55;14.95;;;;;;;20.93;96.39;99114.80;3925759;89;21111;-82
2022/07/23 23:17:40;;;;;;;21.93;15.80;;;;;;;20.92;96.37;99114.02;4057146;86;21148;-82
2022/07/23 23:23:41;;;;;;;23.35;16.97;;;;;;;20.65;96.28;99113.61;4017856;87;21034;-82
2022/07/23 23:29:43;;;;;;;21.70;16.23;;;;;;;20.49;96.80;99108.69;4020632;87;21681;-82
2022/07/23 23:35:49;;;;;;;21.50;16.80;;;;;;;20.38;97.16;99122.88;4012353;87;21549;-82
2022/07/23 23:41:52;;;;;;;17.17;15.05;;;;;;;20.34;97.45;99120.81;4015548;87;21095;-82
2022/07/23 23:47:53;;;;;;;22.30;16.50;;;;;;;20.38;98.10;99119.30;4016504;87;21140;-82
2022/07/23 23:53:59;;;;;;;24.18;18.05;;;;;;;20.46;98.02;99127.64;4015209;87;21081;-82
